Baker Lake, Canada
Current Conditions -  °F | °C
As of 6:00 PM on Friday 24 Oct 2014 (Local Time) from CYBK Reporting Station
Blowing Snow Blowing Snow  
Wind Chill: 12°   Ceiling: 1800
Heat Index: 27°   Visibility: 15mi
Dew Point: 23°   Wind: 23mph
Humidity: 86%   Direction: 80°E
Pressure: 29.86"   Gusts: 36mph
Location:  64.32°N, 96.02°W
Report Text: CYBK 242300Z 08020G31KT 15SM DRSN OVC018 M03/M05 A2986 RMK SC8 SLP113
Loading
Personal Weather Stations






























Interactive Weather Map
Tropical Storm Tracking
New forecast layout! Learn more

10-Day Weather Forecast

Advertisements
Track Severe Weather on mobile